Time;durP1;ratioP1;P1;durP2;ratioP2;P2;SDS_P1;SDS_P2;PMS_P1;PMS_P2;Temp;Humidity;BMP_temperature;BMP_pressure;BME280_temperature;BME280_humidity;BME280_pressure;Samples;Min_cycle;Max_cycle;Signal;HPM_P1;HPM_P2
2022/09/10 00:00:45;;;;;;;2.60;2.22;;;13.80;73.20;;;;;;4974812;28;20421;-49
2022/09/10 00:03:11;;;;;;;3.00;2.40;;;13.80;74.10;;;;;;4974196;28;20031;-49
2022/09/10 00:05:42;;;;;;;3.67;2.65;;;13.70;74.20;;;;;;4969325;28;20051;-50
2022/09/10 00:08:09;;;;;;;2.83;2.50;;;13.70;74.60;;;;;;4973956;28;20110;-50
2022/09/10 00:10:44;;;;;;;2.60;2.40;;;13.70;75.30;;;;;;4974103;28;20038;-50
2022/09/10 00:13:10;;;;;;;2.30;2.10;;;13.70;75.50;;;;;;4973894;28;20380;-51
2022/09/10 00:15:44;;;;;;;2.95;2.15;;;13.60;75.40;;;;;;4982046;28;20033;-50
2022/09/10 00:18:11;;;;;;;2.92;2.22;;;13.60;75.40;;;;;;4973953;28;20061;-51
2022/09/10 00:21:06;;;;;;;2.65;2.38;;;13.60;75.50;;;;;;4983862;28;20034;-52
2022/09/10 00:23:32;;;;;;;2.47;2.28;;;13.60;76.00;;;;;;4970127;28;20049;-49
2022/09/10 00:25:59;;;;;;;3.10;2.42;;;13.60;75.40;;;;;;4975535;28;20042;-50
2022/09/10 00:28:26;;;;;;;2.97;2.50;;;13.60;75.60;;;;;;4976321;28;20039;-50
2022/09/10 00:30:53;;;;;;;3.55;2.60;;;13.60;76.10;;;;;;4976786;28;20382;-52
2022/09/10 00:33:20;;;;;;;4.00;2.50;;;13.60;76.20;;;;;;4990860;28;20125;-52
2022/09/10 00:35:47;;;;;;;2.88;2.60;;;13.50;76.70;;;;;;4975568;28;20046;-52
2022/09/10 00:38:14;;;;;;;3.20;2.40;;;13.50;77.40;;;;;;4973017;28;20118;-52
2022/09/10 00:40:40;;;;;;;2.50;2.20;;;13.40;77.20;;;;;;4979031;28;20071;-50
2022/09/10 00:43:18;;;;;;;3.05;2.50;;;13.40;77.50;;;;;;4981700;28;20097;-52
2022/09/10 00:45:48;;;;;;;3.00;2.53;;;13.40;77.90;;;;;;4981183;28;20046;-51
2022/09/10 00:48:27;;;;;;;3.10;2.28;;;13.40;78.40;;;;;;4989018;28;20449;-51
2022/09/10 00:50:54;;;;;;;2.30;2.10;;;13.40;78.70;;;;;;4981535;28;20030;-50
2022/09/10 00:53:25;;;;;;;2.95;2.38;;;13.40;79.30;;;;;;4975997;28;20115;-54
2022/09/10 00:55:53;;;;;;;2.40;2.20;;;13.50;79.60;;;;;;4973028;28;20101;-49
2022/09/10 00:58:21;;;;;;;2.53;2.28;;;13.50;79.70;;;;;;4975249;28;20050;-50
2022/09/10 01:00:47;;;;;;;2.97;2.58;;;13.60;79.80;;;;;;4981056;28;20048;-52
2022/09/10 01:03:15;;;;;;;2.90;2.00;;;13.60;80.00;;;;;;4978749;28;20030;-52
2022/09/10 01:05:44;;;;;;;3.20;2.10;;;13.70;80.20;;;;;;4956466;28;20047;-47
2022/09/10 01:08:14;;;;;;;3.15;2.10;;;13.70;80.30;;;;;;4978689;28;20368;-49
2022/09/10 01:11:08;;;;;;;1.95;1.85;;;13.80;80.50;;;;;;4978663;28;20039;-47
2022/09/10 01:13:59;;;;;;;3.17;2.25;;;13.80;80.50;;;;;;4972500;28;20448;-49
2022/09/10 01:16:46;;;;;;;3.63;2.45;;;13.80;81.10;;;;;;4979761;28;20158;-48
2022/09/10 01:19:24;;;;;;;2.20;2.00;;;13.80;81.20;;;;;;4984066;28;20046;-50
2022/09/10 01:21:58;;;;;;;2.95;2.42;;;13.80;81.00;;;;;;4983599;28;20045;-49
2022/09/10 01:24:31;;;;;;;3.13;2.38;;;13.80;81.70;;;;;;4983443;28;20488;-47
2022/09/10 01:27:32;;;;;;;4.47;2.10;;;13.80;81.60;;;;;;4972762;28;20457;-50
2022/09/10 01:30:19;;;;;;;2.45;2.25;;;13.80;81.60;;;;;;4972698;28;20038;-51
2022/09/10 01:33:08;;;;;;;2.83;2.50;;;13.80;81.50;;;;;;4972497;28;20046;-50
2022/09/10 01:35:42;;;;;;;2.30;2.10;;;13.80;81.70;;;;;;4971770;28;20042;-50
2022/09/10 01:38:19;;;;;;;3.95;2.20;;;13.80;81.70;;;;;;4972551;28;20054;-52
2022/09/10 01:40:46;;;;;;;2.97;2.60;;;13.80;81.50;;;;;;4972660;28;20038;-51
2022/09/10 01:43:12;;;;;;;3.30;2.30;;;13.80;81.70;;;;;;4972775;28;20063;-52
2022/09/10 01:45:58;;;;;;;3.50;2.50;;;13.80;82.30;;;;;;4971742;28;20047;-51
2022/09/10 01:48:33;;;;;;;3.25;2.70;;;13.70;82.90;;;;;;4944083;28;20054;-52
2022/09/10 01:51:37;;;;;;;2.85;2.40;;;13.70;82.60;;;;;;4962916;28;20042;-51
2022/09/10 01:54:35;;;;;;;2.72;2.53;;;13.70;83.70;;;;;;4972473;28;20023;-52
2022/09/10 01:57:29;;;;;;;2.60;2.40;;;13.70;83.40;;;;;;4972043;28;20046;-50
2022/09/10 02:00:05;;;;;;;2.55;2.35;;;13.60;83.30;;;;;;4979351;28;20042;-51
2022/09/10 02:02:42;;;;;;;3.13;2.45;;;13.60;83.50;;;;;;4974631;28;20034;-50
2022/09/10 02:05:10;;;;;;;3.70;2.65;;;13.60;83.50;;;;;;4976319;28;20034;-49
2022/09/10 02:07:36;;;;;;;3.80;2.88;;;13.60;83.80;;;;;;4972711;28;20046;-48
2022/09/10 02:10:06;;;;;;;2.72;2.38;;;13.60;83.90;;;;;;4975270;28;20035;-49
2022/09/10 02:12:32;;;;;;;3.28;2.40;;;13.50;83.80;;;;;;4981345;28;20039;-48
2022/09/10 02:14:58;;;;;;;3.45;2.97;;;13.50;84.00;;;;;;4983746;28;20042;-50
2022/09/10 02:17:30;;;;;;;3.92;2.78;;;13.50;84.40;;;;;;4983841;28;20031;-48
2022/09/10 02:19:57;;;;;;;3.97;2.90;;;13.50;85.00;;;;;;4986489;28;20069;-50
2022/09/10 02:22:23;;;;;;;4.65;3.17;;;13.50;85.10;;;;;;4979930;28;20035;-51
2022/09/10 02:24:49;;;;;;;6.13;2.72;;;13.50;85.80;;;;;;4989252;28;20077;-52
2022/09/10 02:27:16;;;;;;;3.83;3.08;;;13.50;86.10;;;;;;4978073;28;20042;-50
2022/09/10 02:29:41;;;;;;;6.05;3.00;;;13.40;86.40;;;;;;4981813;28;20038;-50
2022/09/10 02:32:07;;;;;;;3.60;2.95;;;13.40;86.60;;;;;;4975847;28;20154;-53
2022/09/10 02:34:34;;;;;;;3.25;2.80;;;13.40;87.10;;;;;;4974716;28;20472;-50
2022/09/10 02:37:01;;;;;;;3.13;2.83;;;13.40;87.40;;;;;;4976109;28;20039;-52
2022/09/10 02:39:27;;;;;;;3.05;2.72;;;13.40;87.60;;;;;;4982227;28;20118;-51
2022/09/10 02:41:52;;;;;;;3.20;2.90;;;13.40;88.00;;;;;;4974393;28;20114;-50
2022/09/10 02:44:18;;;;;;;3.67;3.00;;;13.40;88.40;;;;;;4976094;28;20485;-52
2022/09/10 02:46:44;;;;;;;5.18;3.20;;;13.40;88.10;;;;;;4975624;28;20093;-52
2022/09/10 02:49:09;;;;;;;4.03;3.33;;;13.40;88.40;;;;;;4974912;28;20034;-51
2022/09/10 02:51:40;;;;;;;3.88;2.95;;;13.40;88.50;;;;;;4974517;28;20039;-52
2022/09/10 02:54:06;;;;;;;3.40;3.10;;;13.30;88.80;;;;;;4964299;28;20033;-48
2022/09/10 02:56:33;;;;;;;4.70;3.22;;;13.30;89.00;;;;;;4976483;28;20081;-49
2022/09/10 02:58:59;;;;;;;5.22;3.33;;;13.30;89.30;;;;;;4980435;28;20034;-54
2022/09/10 03:01:24;;;;;;;4.35;3.70;;;13.30;89.20;;;;;;4976222;28;20479;-52
2022/09/10 03:03:53;;;;;;;4.80;3.50;;;13.40;89.40;;;;;;4975536;28;20105;-50
2022/09/10 03:06:20;;;;;;;3.55;3.08;;;13.40;89.80;;;;;;4977349;28;20030;-50
2022/09/10 03:08:47;;;;;;;3.60;3.25;;;13.40;89.40;;;;;;4984311;28;20030;-52
2022/09/10 03:11:14;;;;;;;4.18;3.05;;;13.40;89.70;;;;;;4984300;28;20046;-52
2022/09/10 03:13:41;;;;;;;3.53;3.00;;;13.40;89.60;;;;;;4983366;28;20132;-51
2022/09/10 03:16:08;;;;;;;3.28;2.97;;;13.30;89.50;;;;;;4985139;28;20034;-50
2022/09/10 03:18:34;;;;;;;4.95;3.25;;;13.30;89.60;;;;;;4986692;28;20030;-50
2022/09/10 03:21:14;;;;;;;3.55;2.97;;;13.40;89.90;;;;;;4974707;28;20414;-50
2022/09/10 03:23:41;;;;;;;3.67;3.03;;;13.30;89.60;;;;;;4974184;28;20397;-50
2022/09/10 03:26:09;;;;;;;4.15;2.95;;;13.30;89.80;;;;;;4982480;28;20133;-50
2022/09/10 03:28:36;;;;;;;5.30;3.58;;;13.30;89.60;;;;;;4975222;28;20039;-52
2022/09/10 03:31:05;;;;;;;4.03;2.80;;;13.30;89.90;;;;;;4952646;28;20027;-52
2022/09/10 03:33:31;;;;;;;4.57;3.08;;;13.30;90.00;;;;;;4974831;28;20038;-52
2022/09/10 03:35:57;;;;;;;3.33;2.85;;;13.30;90.10;;;;;;4982686;28;20035;-49
2022/09/10 03:38:24;;;;;;;4.18;3.25;;;13.40;90.20;;;;;;4974809;28;20035;-50
2022/09/10 03:40:51;;;;;;;3.75;2.90;;;13.40;90.30;;;;;;4987675;28;20031;-52
2022/09/10 03:43:17;;;;;;;3.65;3.20;;;13.40;90.30;;;;;;4975602;28;20208;-53
2022/09/10 03:45:43;;;;;;;3.47;3.10;;;13.40;90.40;;;;;;4974296;28;20130;-52
2022/09/10 03:48:08;;;;;;;4.85;3.47;;;13.40;90.40;;;;;;4976762;28;20477;-51
2022/09/10 03:50:34;;;;;;;5.40;3.58;;;13.40;90.50;;;;;;4980250;28;20110;-53
2022/09/10 03:53:02;;;;;;;4.68;3.67;;;13.40;90.60;;;;;;4973624;28;20121;-52
2022/09/10 03:55:29;;;;;;;5.25;3.80;;;13.40;90.80;;;;;;4974356;28;20023;-49
2022/09/10 03:57:56;;;;;;;6.65;4.40;;;13.40;90.80;;;;;;4974245;28;20050;-51
2022/09/10 04:00:21;;;;;;;5.70;3.75;;;13.40;91.00;;;;;;4977000;28;20034;-50
2022/09/10 04:02:47;;;;;;;5.05;4.13;;;13.40;91.20;;;;;;4974260;28;20034;-52
2022/09/10 04:05:13;;;;;;;6.80;3.85;;;13.50;91.30;;;;;;4977560;28;20068;-50
2022/09/10 04:07:38;;;;;;;4.88;3.75;;;13.50;91.40;;;;;;4976031;28;20035;-52
2022/09/10 04:10:04;;;;;;;6.10;4.47;;;13.50;91.40;;;;;;4976740;28;20033;-49
2022/09/10 04:12:30;;;;;;;5.47;4.03;;;13.60;91.30;;;;;;4976803;28;20058;-51
2022/09/10 04:14:56;;;;;;;6.50;4.40;;;13.60;91.10;;;;;;4976488;28;20105;-52
2022/09/10 04:17:22;;;;;;;5.32;4.30;;;13.60;91.10;;;;;;4975376;28;20034;-53
2022/09/10 04:19:49;;;;;;;5.18;4.20;;;13.60;91.10;;;;;;4976339;28;20027;-49
2022/09/10 04:22:15;;;;;;;6.20;4.25;;;13.50;90.90;;;;;;4975298;28;20464;-49
2022/09/10 04:24:41;;;;;;;5.93;4.57;;;13.50;91.00;;;;;;4973328;28;20038;-49
2022/09/10 04:27:06;;;;;;;4.57;3.90;;;13.50;91.10;;;;;;4975149;28;20038;-51
2022/09/10 04:29:32;;;;;;;5.70;4.13;;;13.60;91.30;;;;;;4985032;28;20365;-51
2022/09/10 04:31:58;;;;;;;5.30;3.92;;;13.60;91.30;;;;;;4974710;28;20035;-51
2022/09/10 04:34:23;;;;;;;4.03;3.50;;;13.60;91.00;;;;;;4975504;28;20603;-50
2022/09/10 04:36:49;;;;;;;5.05;3.40;;;13.60;90.70;;;;;;4972011;28;20039;-53
2022/09/10 04:39:15;;;;;;;4.20;3.55;;;13.60;90.60;;;;;;4973912;28;20508;-52
2022/09/10 04:41:41;;;;;;;4.72;3.75;;;13.70;90.60;;;;;;4982249;28;20431;-49
2022/09/10 04:44:07;;;;;;;4.25;3.53;;;13.70;90.50;;;;;;4976314;28;20664;-50
2022/09/10 04:46:33;;;;;;;4.43;3.58;;;13.70;90.30;;;;;;4978652;28;20039;-50
2022/09/10 04:48:59;;;;;;;4.65;3.80;;;13.70;90.20;;;;;;4972933;28;20396;-51
2022/09/10 04:51:25;;;;;;;3.58;3.15;;;13.70;90.10;;;;;;4973712;28;20060;-51
2022/09/10 04:53:51;;;;;;;4.25;3.42;;;13.70;90.00;;;;;;4972658;28;20118;-51
2022/09/10 04:56:19;;;;;;;4.55;3.45;;;13.70;90.20;;;;;;4974475;28;20035;-50
2022/09/10 04:58:45;;;;;;;3.58;3.25;;;13.70;89.70;;;;;;4971423;28;20166;-51
2022/09/10 05:01:10;;;;;;;5.82;3.60;;;13.70;89.80;;;;;;4971874;28;20524;-52
2022/09/10 05:03:36;;;;;;;3.95;3.42;;;13.70;89.60;;;;;;4972269;28;20062;-49
2022/09/10 05:06:03;;;;;;;4.10;3.38;;;13.70;89.40;;;;;;4970791;28;20039;-49
2022/09/10 05:08:29;;;;;;;4.03;3.10;;;13.70;89.30;;;;;;4957167;28;20508;-49
2022/09/10 05:10:55;;;;;;;3.42;3.13;;;13.70;89.00;;;;;;4965443;28;20062;-49
2022/09/10 05:13:21;;;;;;;3.92;3.20;;;13.70;88.90;;;;;;4972638;28;20023;-51
2022/09/10 05:15:46;;;;;;;4.45;3.22;;;13.70;88.50;;;;;;4976116;28;20069;-50
2022/09/10 05:18:12;;;;;;;4.32;3.42;;;13.80;88.50;;;;;;4980013;28;20085;-50
2022/09/10 05:20:38;;;;;;;4.80;3.47;;;13.80;88.40;;;;;;4977895;28;20115;-52
2022/09/10 05:23:04;;;;;;;6.13;3.70;;;13.80;87.90;;;;;;4972966;28;20488;-51
2022/09/10 05:25:29;;;;;;;5.03;3.35;;;13.80;87.80;;;;;;4975473;28;20114;-49
2022/09/10 05:27:55;;;;;;;4.32;3.25;;;13.80;87.70;;;;;;4974959;28;20035;-51
2022/09/10 05:30:21;;;;;;;3.97;3.45;;;13.80;87.80;;;;;;4978978;28;20388;-52
2022/09/10 05:32:46;;;;;;;4.25;3.28;;;13.80;87.70;;;;;;4972481;28;20740;-53
2022/09/10 05:35:12;;;;;;;3.78;2.85;;;13.80;87.30;;;;;;4971385;28;20376;-52
2022/09/10 05:37:38;;;;;;;5.32;3.67;;;13.90;87.40;;;;;;4979010;28;20361;-51
2022/09/10 05:40:08;;;;;;;3.63;2.90;;;13.80;87.10;;;;;;4976905;28;20132;-52
2022/09/10 05:42:34;;;;;;;3.55;3.20;;;13.90;87.00;;;;;;4973034;28;20034;-53
2022/09/10 05:45:00;;;;;;;3.97;3.10;;;13.90;87.00;;;;;;4980988;28;20035;-53
2022/09/10 05:47:27;;;;;;;3.53;3.08;;;13.90;86.90;;;;;;4984267;28;20042;-53
2022/09/10 05:49:53;;;;;;;3.42;2.90;;;13.90;86.90;;;;;;4984160;28;20062;-53
2022/09/10 05:52:18;;;;;;;4.25;3.33;;;13.90;86.40;;;;;;4989539;28;20027;-49
2022/09/10 05:54:44;;;;;;;4.80;3.42;;;13.90;86.00;;;;;;4978524;28;20041;-50
2022/09/10 05:57:10;;;;;;;4.35;3.38;;;13.90;85.90;;;;;;4976321;28;20109;-51
2022/09/10 05:59:35;;;;;;;3.85;3.15;;;13.90;85.80;;;;;;4972362;28;20038;-50
2022/09/10 06:02:01;;;;;;;5.15;3.45;;;13.90;85.70;;;;;;4984767;28;20461;-50
2022/09/10 06:04:27;;;;;;;4.32;3.40;;;13.80;85.70;;;;;;4981921;28;20034;-49
2022/09/10 06:06:53;;;;;;;3.88;3.00;;;13.80;85.80;;;;;;4985506;28;20089;-48
2022/09/10 06:09:19;;;;;;;3.38;3.00;;;13.80;85.60;;;;;;4983787;28;20388;-51
2022/09/10 06:11:48;;;;;;;3.75;3.00;;;13.90;85.70;;;;;;4976865;28;20093;-48
2022/09/10 06:14:14;;;;;;;3.83;2.90;;;13.90;85.40;;;;;;4975906;28;20424;-50
2022/09/10 06:16:40;;;;;;;3.30;2.95;;;13.90;85.30;;;;;;4979177;28;20039;-49
2022/09/10 06:19:07;;;;;;;4.45;2.83;;;13.90;85.10;;;;;;4976724;28;20477;-47
2022/09/10 06:21:32;;;;;;;3.10;2.80;;;13.90;85.00;;;;;;4982749;28;20109;-52
2022/09/10 06:23:58;;;;;;;3.42;2.92;;;13.90;84.80;;;;;;4978338;28;20461;-49
2022/09/10 06:26:24;;;;;;;4.32;3.38;;;13.90;84.60;;;;;;4975720;28;20038;-48
2022/09/10 06:28:50;;;;;;;3.80;2.97;;;13.90;84.60;;;;;;4983663;28;20376;-49
2022/09/10 06:31:16;;;;;;;3.78;2.95;;;13.80;85.10;;;;;;4982581;28;20042;-51
2022/09/10 06:33:51;;;;;;;3.53;3.10;;;13.80;84.20;;;;;;4983129;28;20031;-53
2022/09/10 06:36:17;;;;;;;4.70;3.28;;;13.80;84.00;;;;;;4973223;28;20031;-49
2022/09/10 06:38:44;;;;;;;3.70;3.17;;;13.80;83.90;;;;;;4975270;28;20366;-50
2022/09/10 06:41:12;;;;;;;4.03;2.78;;;13.90;83.70;;;;;;4975398;28;20030;-52
2022/09/10 06:43:39;;;;;;;3.65;3.00;;;13.90;83.30;;;;;;4975913;28;20069;-50
2022/09/10 06:46:14;;;;;;;4.00;3.08;;;13.80;83.30;;;;;;4975655;28;20038;-49
2022/09/10 06:48:41;;;;;;;3.22;2.92;;;13.80;83.10;;;;;;4973264;28;20526;-52
2022/09/10 06:51:08;;;;;;;3.55;3.22;;;13.80;82.90;;;;;;4974806;28;20019;-49
2022/09/10 06:53:35;;;;;;;3.40;3.05;;;13.90;82.80;;;;;;4978369;28;20039;-50
2022/09/10 06:56:01;;;;;;;3.45;3.03;;;13.80;82.70;;;;;;4975547;28;20096;-49
2022/09/10 06:58:31;;;;;;;3.65;2.95;;;13.80;82.60;;;;;;4973100;28;20023;-52
2022/09/10 07:00:56;;;;;;;4.18;3.20;;;13.80;82.70;;;;;;4975136;28;20030;-51
2022/09/10 07:03:22;;;;;;;3.70;3.00;;;13.80;82.50;;;;;;4988789;28;20027;-51
2022/09/10 07:05:49;;;;;;;4.43;3.53;;;13.70;82.30;;;;;;4977206;28;20491;-52
2022/09/10 07:08:16;;;;;;;3.53;3.20;;;13.60;82.40;;;;;;4974597;28;20042;-48
2022/09/10 07:10:43;;;;;;;4.20;2.90;;;13.50;82.50;;;;;;4971309;28;20039;-51
2022/09/10 07:13:13;;;;;;;3.83;3.15;;;13.50;82.80;;;;;;4980428;28;20029;-50
2022/09/10 07:15:45;;;;;;;3.78;3.15;;;13.40;83.20;;;;;;4980351;28;20027;-52
2022/09/10 07:18:13;;;;;;;4.57;3.40;;;13.30;83.50;;;;;;4987617;28;20026;-48
2022/09/10 07:20:42;;;;;;;4.10;3.38;;;13.30;83.70;;;;;;4981036;28;20077;-50
2022/09/10 07:23:13;;;;;;;3.90;3.10;;;13.30;84.00;;;;;;4974827;28;20038;-49
2022/09/10 07:25:39;;;;;;;4.53;3.60;;;13.20;84.20;;;;;;4974994;28;20456;-50
2022/09/10 07:28:06;;;;;;;4.55;3.50;;;13.20;84.40;;;;;;4978017;28;20446;-48
2022/09/10 07:30:32;;;;;;;4.75;3.80;;;13.20;84.80;;;;;;4974555;28;20101;-52
2022/09/10 07:32:58;;;;;;;5.03;3.97;;;13.10;85.00;;;;;;4974610;28;20026;-49
2022/09/10 07:35:24;;;;;;;5.28;4.07;;;13.00;85.00;;;;;;4975312;28;20384;-49
2022/09/10 07:37:50;;;;;;;5.57;4.00;;;13.00;85.10;;;;;;4983290;28;20464;-50
2022/09/10 07:40:15;;;;;;;4.63;3.85;;;13.00;85.50;;;;;;4975579;28;20034;-49
2022/09/10 07:42:42;;;;;;;4.93;3.83;;;12.90;85.80;;;;;;4985748;28;20031;-50
2022/09/10 07:45:14;;;;;;;4.60;3.78;;;12.90;86.20;;;;;;4978038;28;20106;-48
2022/09/10 07:47:41;;;;;;;3.47;3.17;;;12.90;86.30;;;;;;4977070;28;20066;-49
2022/09/10 07:50:07;;;;;;;4.60;3.65;;;12.80;86.60;;;;;;4979786;28;20031;-50
2022/09/10 07:52:33;;;;;;;5.03;3.58;;;12.80;87.10;;;;;;4979060;28;20031;-51
2022/09/10 07:55:02;;;;;;;5.65;4.10;;;12.80;87.20;;;;;;4982932;28;20050;-52
2022/09/10 07:57:30;;;;;;;4.25;3.40;;;12.80;87.30;;;;;;4974366;28;20030;-48
2022/09/10 07:59:55;;;;;;;4.10;3.33;;;12.80;87.30;;;;;;4979852;28;20472;-51
2022/09/10 08:02:24;;;;;;;5.18;4.00;;;12.80;87.80;;;;;;4982680;28;20062;-52
2022/09/10 08:04:50;;;;;;;4.57;3.80;;;12.80;88.10;;;;;;4973882;28;20027;-48
2022/09/10 08:07:16;;;;;;;4.55;3.65;;;12.80;88.60;;;;;;4975570;28;20053;-50
2022/09/10 08:09:42;;;;;;;5.57;3.80;;;12.90;88.70;;;;;;4984005;28;20031;-50
2022/09/10 08:12:08;;;;;;;4.60;3.63;;;12.90;88.70;;;;;;4983785;28;20445;-49
2022/09/10 08:14:33;;;;;;;4.72;3.83;;;13.00;88.90;;;;;;4977700;28;20105;-48
2022/09/10 08:17:00;;;;;;;5.18;4.18;;;13.00;88.90;;;;;;4981827;28;20030;-48
2022/09/10 08:19:26;;;;;;;4.63;3.95;;;13.10;88.80;;;;;;4971925;28;20457;-49
2022/09/10 08:21:51;;;;;;;4.55;4.00;;;13.20;88.80;;;;;;4976062;28;20070;-49
2022/09/10 08:24:17;;;;;;;6.10;4.32;;;13.20;88.90;;;;;;4976158;28;20030;-50
2022/09/10 08:26:43;;;;;;;5.63;3.78;;;13.30;88.60;;;;;;4973674;28;20090;-49
2022/09/10 08:29:08;;;;;;;4.32;3.70;;;13.40;88.60;;;;;;4981728;28;20089;-49
2022/09/10 08:31:34;;;;;;;4.53;3.53;;;13.50;88.70;;;;;;4973280;28;20031;-48
2022/09/10 08:34:00;;;;;;;5.10;4.18;;;13.60;88.60;;;;;;4972877;28;20039;-51
2022/09/10 08:36:26;;;;;;;4.63;3.97;;;13.70;88.20;;;;;;4972749;28;20046;-51
2022/09/10 08:38:53;;;;;;;4.32;3.92;;;13.70;87.70;;;;;;4972885;28;20097;-52
2022/09/10 08:41:37;;;;;;;4.68;3.97;;;13.80;87.40;;;;;;4974445;28;20459;-50
2022/09/10 08:44:04;;;;;;;5.13;3.90;;;13.90;87.10;;;;;;4972408;28;20054;-50
2022/09/10 08:46:39;;;;;;;4.63;4.10;;;13.90;87.20;;;;;;4971342;28;20050;-52
2022/09/10 08:49:07;;;;;;;4.20;3.50;;;13.90;87.00;;;;;;4973579;28;20367;-51
2022/09/10 08:52:01;;;;;;;4.90;4.03;;;13.90;87.10;;;;;;4973386;28;20050;-49
2022/09/10 08:54:36;;;;;;;5.50;3.95;;;13.90;87.10;;;;;;4972863;28;20031;-51
2022/09/10 08:57:05;;;;;;;3.67;3.38;;;13.90;87.00;;;;;;4977034;28;20088;-52
2022/09/10 08:59:41;;;;;;;5.13;3.78;;;14.00;86.70;;;;;;4983343;28;20117;-49
2022/09/10 09:02:21;;;;;;;4.68;3.80;;;14.00;86.70;;;;;;4975812;28;20042;-50
2022/09/10 09:04:57;;;;;;;4.75;4.05;;;13.90;86.60;;;;;;4981740;28;20065;-49
2022/09/10 09:07:23;;;;;;;4.93;4.18;;;13.90;87.00;;;;;;4974891;28;20047;-51
2022/09/10 09:09:50;;;;;;;5.00;4.20;;;13.90;87.00;;;;;;4980705;28;20032;-52
2022/09/10 09:12:44;;;;;;;5.43;3.70;;;13.90;86.90;;;;;;4973651;28;20041;-49
2022/09/10 09:15:18;;;;;;;5.47;4.18;;;13.90;87.10;;;;;;4973125;28;20027;-52
2022/09/10 09:17:59;;;;;;;4.78;4.25;;;13.90;87.20;;;;;;4975257;28;20074;-53
2022/09/10 09:20:43;;;;;;;5.82;4.07;;;13.90;87.20;;;;;;4983734;28;20092;-50
2022/09/10 09:23:33;;;;;;;4.20;3.80;;;13.90;87.20;;;;;;4980285;28;20058;-54
2022/09/10 09:26:11;;;;;;;4.97;4.25;;;13.90;87.20;;;;;;4986195;28;20121;-53
2022/09/10 09:28:50;;;;;;;4.80;4.30;;;13.90;87.20;;;;;;4968090;28;20039;-50
2022/09/10 09:31:34;;;;;;;5.40;4.10;;;14.00;87.20;;;;;;4979434;28;20364;-53
2022/09/10 09:34:06;;;;;;;5.05;3.80;;;14.00;87.20;;;;;;4975932;28;20023;-50
2022/09/10 09:36:36;;;;;;;;;;;14.00;87.50;;;;;;4972395;28;20027;-51
2022/09/10 09:39:09;;;;;;;4.65;3.65;;;14.00;88.50;;;;;;4973005;28;20368;-53
2022/09/10 09:41:58;;;;;;;6.57;4.35;;;14.10;87.40;;;;;;4972912;28;20126;-52
2022/09/10 09:44:35;;;;;;;5.28;4.00;;;14.10;87.30;;;;;;4971834;28;20074;-49
2022/09/10 09:47:01;;;;;;;4.88;4.10;;;14.10;87.10;;;;;;4973366;28;20094;-53
2022/09/10 09:49:27;;;;;;;5.95;4.50;;;14.20;87.20;;;;;;4971497;28;20476;-49
2022/09/10 09:51:53;;;;;;;5.25;4.18;;;14.20;87.10;;;;;;4975482;28;20034;-52
2022/09/10 09:54:26;;;;;;;4.47;3.90;;;14.20;87.10;;;;;;4977447;28;20031;-51
2022/09/10 09:56:54;;;;;;;4.65;4.20;;;14.20;86.80;;;;;;4970309;28;20031;-50
2022/09/10 09:59:28;;;;;;;5.97;4.32;;;14.20;86.70;;;;;;4976752;28;20488;-52
2022/09/10 10:01:59;;;;;;;5.50;4.43;;;14.30;86.60;;;;;;4974697;28;20369;-49
2022/09/10 10:04:29;;;;;;;5.75;4.60;;;14.30;86.50;;;;;;4975950;28;20108;-53
2022/09/10 10:06:58;;;;;;;4.63;4.07;;;14.30;86.60;;;;;;4971376;28;20027;-50
2022/09/10 10:09:33;;;;;;;6.05;4.43;;;14.40;86.70;;;;;;4976491;28;20469;-52
2022/09/10 10:12:06;;;;;;;6.03;4.13;;;14.40;86.50;;;;;;4978541;28;20156;-53
2022/09/10 10:14:34;;;;;;;4.93;3.80;;;14.40;86.50;;;;;;4978807;28;20137;-51
2022/09/10 10:17:00;;;;;;;5.15;4.30;;;14.40;86.40;;;;;;4975944;28;20027;-51
2022/09/10 10:19:33;;;;;;;5.57;4.40;;;14.40;86.30;;;;;;4972163;28;20058;-52
2022/09/10 10:22:15;;;;;;;6.80;4.47;;;14.50;86.20;;;;;;4977238;28;20556;-53
2022/09/10 10:24:42;;;;;;;5.93;4.35;;;14.50;86.20;;;;;;4977106;28;20033;-52
2022/09/10 10:27:21;;;;;;;6.07;4.45;;;14.50;86.10;;;;;;4978369;28;20069;-50
2022/09/10 10:29:59;;;;;;;5.25;4.22;;;14.50;86.10;;;;;;4971363;28;20428;-50
2022/09/10 10:32:41;;;;;;;4.70;4.05;;;14.50;86.30;;;;;;4963645;28;20602;-50
2022/09/10 10:35:22;;;;;;;4.78;4.03;;;14.50;86.40;;;;;;4976042;28;20030;-52
2022/09/10 10:38:16;;;;;;;5.80;4.40;;;14.60;86.40;;;;;;4987312;28;20118;-52
2022/09/10 10:40:55;;;;;;;5.22;4.40;;;14.60;86.20;;;;;;4980936;28;20045;-52
2022/09/10 10:43:24;;;;;;;5.10;4.22;;;14.60;85.90;;;;;;4979161;28;20058;-51
2022/09/10 10:46:08;;;;;;;5.28;4.13;;;14.70;85.90;;;;;;4984342;28;20558;-51
2022/09/10 10:49:11;;;;;;;5.57;4.40;;;14.70;85.90;;;;;;4972131;28;20189;-50
2022/09/10 10:52:14;;;;;;;4.65;3.95;;;14.70;86.10;;;;;;4978559;28;20476;-51
2022/09/10 10:55:01;;;;;;;5.60;4.10;;;14.70;85.90;;;;;;4987424;28;20035;-49
2022/09/10 10:58:00;;;;;;;4.55;3.88;;;14.70;86.00;;;;;;4974505;28;20465;-52
2022/09/10 11:00:30;;;;;;;4.65;3.65;;;14.70;85.80;;;;;;4977740;28;20026;-54
2022/09/10 11:03:11;;;;;;;5.43;4.47;;;14.80;85.70;;;;;;4972986;28;20050;-53
2022/09/10 11:05:44;;;;;;;5.35;3.83;;;14.80;85.90;;;;;;4976060;28;20387;-51
2022/09/10 11:08:19;;;;;;;5.75;4.53;;;14.80;85.90;;;;;;4977010;28;20476;-49
2022/09/10 11:10:55;;;;;;;5.18;4.20;;;14.80;85.70;;;;;;4980145;28;20104;-51
2022/09/10 11:13:41;;;;;;;4.63;4.00;;;14.80;85.60;;;;;;4980511;28;20069;-52
2022/09/10 11:16:22;;;;;;;4.78;4.18;;;14.80;85.60;;;;;;4977358;28;20042;-54
2022/09/10 11:18:52;;;;;;;4.75;4.05;;;14.80;85.90;;;;;;4972390;28;20027;-49
2022/09/10 11:21:25;;;;;;;4.68;4.18;;;14.80;85.90;;;;;;4977110;28;20109;-52
2022/09/10 11:23:55;;;;;;;5.40;4.03;;;14.90;86.10;;;;;;4969730;28;20034;-50
2022/09/10 11:26:32;;;;;;;5.18;4.07;;;14.90;86.10;;;;;;4982416;28;20370;-51
2022/09/10 11:29:08;;;;;;;4.68;3.90;;;14.90;85.90;;;;;;4982390;28;20046;-49
2022/09/10 11:31:46;;;;;;;5.88;3.80;;;14.90;85.90;;;;;;4986945;28;20041;-48
2022/09/10 11:34:24;;;;;;;5.35;3.85;;;15.00;86.00;;;;;;4986918;28;20094;-51
2022/09/10 11:37:17;;;;;;;5.57;4.03;;;15.00;85.80;;;;;;4969735;28;20035;-52
2022/09/10 11:39:47;;;;;;;4.78;3.72;;;15.00;85.70;;;;;;4972623;28;20039;-50
2022/09/10 11:42:25;;;;;;;5.13;4.10;;;15.00;85.70;;;;;;4986423;28;20125;-52
2022/09/10 11:45:20;;;;;;;3.78;3.22;;;15.10;85.40;;;;;;4981154;28;20137;-51
2022/09/10 11:47:55;;;;;;;4.28;3.88;;;15.10;85.40;;;;;;4969525;28;20051;-51
2022/09/10 11:50:24;;;;;;;4.88;3.60;;;15.10;85.40;;;;;;4974623;28;20499;-53
2022/09/10 11:52:52;;;;;;;4.28;3.53;;;15.20;85.40;;;;;;4975109;28;20074;-51
2022/09/10 11:55:18;;;;;;;5.75;3.65;;;15.20;85.30;;;;;;4974441;28;20412;-52
2022/09/10 11:58:10;;;;;;;4.40;3.53;;;15.20;85.10;;;;;;4975114;28;20038;-51
2022/09/10 12:00:51;;;;;;;4.18;3.53;;;15.20;85.00;;;;;;4973268;28;20034;-52
2022/09/10 12:03:54;;;;;;;4.78;3.80;;;15.20;84.90;;;;;;4975556;28;20031;-52
2022/09/10 12:06:30;;;;;;;5.55;3.40;;;15.30;84.90;;;;;;4977682;28;20400;-52
2022/09/10 12:09:12;;;;;;;5.22;3.47;;;15.30;84.90;;;;;;4973683;28;20648;-52
2022/09/10 12:11:50;;;;;;;4.65;3.67;;;15.30;84.80;;;;;;4975071;28;20031;-52
2022/09/10 12:14:20;;;;;;;4.90;3.60;;;15.30;84.60;;;;;;4974538;28;20548;-52
2022/09/10 12:16:58;;;;;;;4.57;3.70;;;15.40;84.70;;;;;;4970017;28;20041;-52
2022/09/10 12:19:44;;;;;;;5.45;3.65;;;15.40;84.60;;;;;;4973788;28;20031;-50
2022/09/10 12:22:36;;;;;;;4.78;3.80;;;15.40;84.50;;;;;;4974258;28;20042;-51
2022/09/10 12:25:01;;;;;;;;;;;15.40;84.50;;;;;;4976395;28;20034;-51
2022/09/10 12:28:06;;;;;;;4.30;3.75;;;15.30;84.80;;;;;;4981166;28;20029;-52
2022/09/10 12:30:34;;;;;;;4.22;3.60;;;15.40;84.60;;;;;;4931326;29;20115;-52
2022/09/10 12:33:20;;;;;;;3.75;3.35;;;15.40;84.70;;;;;;4966093;28;20050;-55
2022/09/10 12:35:48;;;;;;;5.72;3.92;;;15.40;84.70;;;;;;4943076;28;20053;-53
2022/09/10 12:38:46;;;;;;;3.92;3.53;;;15.40;84.90;;;;;;4973625;28;20442;-52
2022/09/10 12:41:34;;;;;;;4.35;3.58;;;15.40;84.80;;;;;;4970065;28;20109;-51
2022/09/10 12:44:03;;;;;;;4.63;3.75;;;15.40;85.00;;;;;;4973044;28;20039;-51
2022/09/10 12:46:30;;;;;;;4.60;3.60;;;15.40;85.00;;;;;;4973969;28;20054;-52
2022/09/10 12:48:56;;;;;;;3.85;3.40;;;15.40;85.10;;;;;;4974507;28;20046;-52
2022/09/10 12:51:50;;;;;;;4.63;4.00;;;15.40;85.10;;;;;;4972433;28;20130;-50
2022/09/10 12:54:22;;;;;;;5.22;3.90;;;15.40;84.90;;;;;;4973160;28;20027;-50
2022/09/10 12:57:12;;;;;;;4.82;3.70;;;15.40;85.00;;;;;;4975199;28;20034;-54
2022/09/10 13:00:10;;;;;;;4.07;3.53;;;15.40;85.20;;;;;;4975315;28;20117;-52
2022/09/10 13:02:46;;;;;;;5.35;3.70;;;15.40;85.70;;;;;;4920783;28;20089;-52
2022/09/10 13:05:22;;;;;;;4.70;3.42;;;15.40;86.00;;;;;;4972319;28;20038;-53
2022/09/10 13:08:17;;;;;;;4.35;3.75;;;15.30;86.00;;;;;;4974711;28;20042;-52
2022/09/10 13:10:48;;;;;;;5.03;3.60;;;15.30;86.10;;;;;;4973067;28;20033;-53